createdAt,value
2024-02-29T00:00:13.249Z,21.94
2024-02-29T00:02:42.561Z,21.94
2024-02-29T00:05:13.748Z,21.92
2024-02-29T00:07:41.802Z,21.94
2024-02-29T00:10:10.359Z,21.93
2024-02-29T00:12:39.888Z,21.91
2024-02-29T00:15:08.569Z,21.91
2024-02-29T00:17:36.464Z,21.91
2024-02-29T00:20:10.009Z,21.89
2024-02-29T00:22:37.788Z,21.89
2024-02-29T00:25:06.189Z,21.88
2024-02-29T00:27:33.998Z,21.88
2024-02-29T00:30:01.456Z,21.87
2024-02-29T00:32:29.188Z,21.87
2024-02-29T00:34:56.630Z,21.86
2024-02-29T00:37:25.724Z,21.85
2024-02-29T00:39:53.375Z,21.86
2024-02-29T00:42:20.757Z,21.87
2024-02-29T00:44:48.381Z,21.88
2024-02-29T00:47:15.935Z,21.90
2024-02-29T00:49:43.559Z,21.88
2024-02-29T00:52:10.994Z,21.90
2024-02-29T00:54:40.079Z,21.90
2024-02-29T00:57:08.054Z,21.89
2024-02-29T00:59:35.679Z,21.89
2024-02-29T01:02:04.753Z,21.89
2024-02-29T01:04:32.382Z,21.89
2024-02-29T01:07:00.023Z,21.88
2024-02-29T01:09:28.846Z,21.87
2024-02-29T01:11:58.169Z,21.88
2024-02-29T01:14:26.992Z,21.87
2024-02-29T01:16:55.317Z,21.88
2024-02-29T01:19:22.957Z,21.87
2024-02-29T01:21:50.598Z,21.86
2024-02-29T01:24:17.999Z,21.86
2024-02-29T01:26:45.531Z,21.86
2024-02-29T01:29:14.564Z,21.85
2024-02-29T01:31:42.160Z,21.85
2024-02-29T01:34:09.785Z,21.84
2024-02-29T01:36:37.432Z,21.84
2024-02-29T01:39:05.389Z,21.83
2024-02-29T01:41:33.034Z,21.83
2024-02-29T01:44:00.438Z,21.84
2024-02-29T01:46:31.220Z,21.83
2024-02-29T01:48:59.615Z,21.82
2024-02-29T01:51:27.692Z,21.81
2024-02-29T01:53:55.338Z,21.81
2024-02-29T01:56:23.348Z,21.80
2024-02-29T01:58:50.929Z,21.80
2024-02-29T02:01:18.686Z,21.81
2024-02-29T02:03:49.039Z,21.80
2024-02-29T02:06:16.738Z,21.79
2024-02-29T02:08:44.210Z,21.79
2024-02-29T02:11:11.946Z,21.79
2024-02-29T02:13:39.924Z,21.78
2024-02-29T02:16:09.187Z,21.77
2024-02-29T02:18:37.217Z,21.77
2024-02-29T02:21:06.435Z,21.75
2024-02-29T02:23:34.135Z,21.76
2024-02-29T02:26:02.004Z,21.76
2024-02-29T02:28:30.511Z,21.74
2024-02-29T02:30:58.158Z,21.73
2024-02-29T02:33:25.572Z,21.74
2024-02-29T02:35:53.172Z,21.74
2024-02-29T02:38:22.589Z,21.74
2024-02-29T02:40:50.190Z,21.74
2024-02-29T02:43:17.589Z,21.75
2024-02-29T02:45:45.164Z,21.76
2024-02-29T02:48:12.616Z,21.77
2024-02-29T02:50:40.410Z,21.77
2024-02-29T02:53:09.055Z,21.78
2024-02-29T02:55:38.051Z,21.78
2024-02-29T02:58:05.839Z,21.78
2024-02-29T03:00:33.705Z,21.78
2024-02-29T03:03:02.853Z,21.77
2024-02-29T03:05:30.850Z,21.78
2024-02-29T03:07:59.026Z,21.78
2024-02-29T03:10:26.834Z,21.77
2024-02-29T03:12:55.702Z,21.76
2024-02-29T03:15:23.234Z,21.76
2024-02-29T03:17:50.779Z,21.78
2024-02-29T03:20:18.662Z,21.77
2024-02-29T03:22:46.970Z,21.76
2024-02-29T03:25:14.739Z,21.76
2024-02-29T03:27:42.600Z,21.75
2024-02-29T03:30:12.125Z,21.75
2024-02-29T03:32:39.800Z,21.75
2024-02-29T03:35:07.997Z,21.74
2024-02-29T03:37:35.608Z,21.73
2024-02-29T03:40:03.282Z,21.74
2024-02-29T03:42:31.047Z,21.72
2024-02-29T03:44:58.935Z,21.72
2024-02-29T03:47:27.764Z,21.72
2024-02-29T03:49:55.306Z,21.71
2024-02-29T03:52:22.892Z,21.71
2024-02-29T03:54:50.461Z,21.71
2024-02-29T03:57:18.157Z,21.70
2024-02-29T03:59:48.336Z,21.70
2024-02-29T04:02:16.286Z,21.68
2024-02-29T04:04:46.116Z,21.69
2024-02-29T04:07:13.745Z,21.68
2024-02-29T04:09:41.183Z,21.68
2024-02-29T04:12:09.192Z,21.67
2024-02-29T04:14:39.944Z,21.68
2024-02-29T04:17:07.810Z,21.67
2024-02-29T04:19:35.345Z,21.65
2024-02-29T04:22:04.475Z,21.65
2024-02-29T04:24:32.077Z,21.65
2024-02-29T04:26:59.716Z,21.64
2024-02-29T04:29:27.120Z,21.64
2024-02-29T04:31:55.040Z,21.65
2024-02-29T04:34:22.783Z,21.64
2024-02-29T04:36:50.504Z,21.64
2024-02-29T04:39:19.842Z,21.64
2024-02-29T04:41:47.471Z,21.65
2024-02-29T04:44:15.127Z,21.67
2024-02-29T04:46:42.610Z,21.67
2024-02-29T04:49:10.321Z,21.66
2024-02-29T04:51:37.936Z,21.68
2024-02-29T04:54:05.562Z,21.68
2024-02-29T04:56:36.565Z,21.68
2024-02-29T04:59:05.712Z,21.66
2024-02-29T05:01:33.379Z,21.68
2024-02-29T05:04:00.982Z,21.67
2024-02-29T05:06:29.128Z,21.66
2024-02-29T05:08:56.851Z,21.65
2024-02-29T05:11:24.584Z,21.65
2024-02-29T05:13:53.536Z,21.64
2024-02-29T05:16:21.921Z,21.65
2024-02-29T05:18:49.647Z,21.64
2024-02-29T05:21:17.446Z,21.65
2024-02-29T05:23:45.040Z,21.63
2024-02-29T05:26:12.670Z,21.63
2024-02-29T05:28:40.146Z,21.67
2024-02-29T05:31:09.350Z,21.67
2024-02-29T05:33:38.932Z,21.68
2024-02-29T05:36:07.433Z,21.67
2024-02-29T05:38:35.098Z,21.69
2024-02-29T05:41:03.414Z,21.70
2024-02-29T05:43:34.661Z,21.70
2024-02-29T05:46:03.776Z,21.72
2024-02-29T05:48:36.347Z,21.69
2024-02-29T05:51:04.809Z,21.67
2024-02-29T05:53:32.469Z,21.71
2024-02-29T05:55:59.837Z,21.68
2024-02-29T05:58:31.855Z,21.68
2024-02-29T06:00:59.838Z,21.68
2024-02-29T06:03:27.535Z,21.66
2024-02-29T06:05:56.644Z,21.62
2024-02-29T06:08:24.270Z,21.61
2024-02-29T06:10:51.751Z,21.60
2024-02-29T06:13:19.384Z,21.56
2024-02-29T06:15:46.852Z,21.51
2024-02-29T06:18:15.391Z,21.52
2024-02-29T06:20:43.648Z,21.52
2024-02-29T06:23:12.614Z,21.56
2024-02-29T06:25:41.333Z,21.58
2024-02-29T06:28:08.963Z,21.58
2024-02-29T06:30:36.680Z,21.59
2024-02-29T06:33:04.354Z,21.62
2024-02-29T06:35:32.282Z,21.62
2024-02-29T06:37:59.984Z,21.62
2024-02-29T06:40:29.121Z,21.64
2024-02-29T06:42:57.300Z,21.65
2024-02-29T06:45:25.122Z,21.65
2024-02-29T06:47:52.832Z,21.66
2024-02-29T06:50:20.791Z,21.67
2024-02-29T06:52:49.160Z,21.67
2024-02-29T06:55:17.878Z,21.68
2024-02-29T06:57:48.646Z,21.68
2024-02-29T07:00:16.866Z,21.68
2024-02-29T07:02:44.496Z,21.69
2024-02-29T07:05:12.337Z,21.71
2024-02-29T07:07:39.886Z,21.73
2024-02-29T07:10:08.296Z,21.76
2024-02-29T07:12:35.946Z,21.78
2024-02-29T07:15:05.262Z,21.78
2024-02-29T07:17:32.858Z,21.81
2024-02-29T07:20:00.279Z,21.82
2024-02-29T07:22:27.884Z,21.83
2024-02-29T07:24:55.351Z,21.84
2024-02-29T07:27:23.285Z,21.81
2024-02-29T07:29:50.878Z,21.77
2024-02-29T07:32:19.695Z,21.77
2024-02-29T07:34:47.402Z,21.75
2024-02-29T07:37:14.860Z,21.76
2024-02-29T07:39:42.531Z,21.77
2024-02-29T07:42:10.529Z,21.77
2024-02-29T07:44:38.219Z,21.78
2024-02-29T07:47:05.854Z,21.75
2024-02-29T07:49:34.659Z,21.76
2024-02-29T07:52:02.482Z,21.77
2024-02-29T07:54:30.197Z,21.78
2024-02-29T07:56:58.976Z,21.77
2024-02-29T07:59:26.795Z,21.80
2024-02-29T08:01:54.613Z,21.81
2024-02-29T08:04:22.928Z,21.84
2024-02-29T08:06:51.949Z,21.88
2024-02-29T08:09:19.678Z,21.88
2024-02-29T08:11:47.292Z,21.88
2024-02-29T08:14:17.506Z,21.88
2024-02-29T08:16:46.553Z,21.88
2024-02-29T08:19:14.180Z,21.88
2024-02-29T08:21:42.097Z,21.91
2024-02-29T08:24:11.296Z,21.87
2024-02-29T08:26:39.266Z,21.84
2024-02-29T08:29:06.685Z,21.86
2024-02-29T08:31:34.459Z,21.84
2024-02-29T08:34:02.210Z,21.85
2024-02-29T08:36:30.671Z,21.84
2024-02-29T08:38:59.635Z,21.85
2024-02-29T08:41:29.307Z,21.84
2024-02-29T08:43:57.073Z,21.83
2024-02-29T08:46:24.758Z,21.85
2024-02-29T08:48:52.425Z,21.83
2024-02-29T08:51:20.119Z,21.86
2024-02-29T08:53:47.707Z,21.83
2024-02-29T08:56:16.181Z,21.81
2024-02-29T08:58:45.278Z,21.79
2024-02-29T09:01:12.954Z,21.76
2024-02-29T09:03:40.621Z,21.79
2024-02-29T09:06:08.056Z,21.80
2024-02-29T09:08:35.745Z,21.82
2024-02-29T09:11:04.853Z,21.84
2024-02-29T09:13:35.750Z,21.85
2024-02-29T09:16:05.898Z,21.83
2024-02-29T09:18:35.154Z,21.85
2024-02-29T09:21:02.786Z,21.86
2024-02-29T09:23:30.429Z,21.87
2024-02-29T09:25:58.135Z,21.88
2024-02-29T09:28:25.798Z,21.88
2024-02-29T09:30:54.988Z,21.90
2024-02-29T09:33:25.992Z,21.92
2024-02-29T09:35:58.703Z,21.90
2024-02-29T09:38:26.590Z,21.91
2024-02-29T09:41:03.212Z,21.94
2024-02-29T09:43:40.525Z,21.93
2024-02-29T09:46:11.444Z,21.92
2024-02-29T09:48:41.478Z,21.91
2024-02-29T09:51:16.186Z,21.97
2024-02-29T09:53:44.172Z,21.94
2024-02-29T09:56:11.746Z,21.95
2024-02-29T09:58:40.343Z,22.10
2024-02-29T10:01:10.896Z,22.18
2024-02-29T10:03:41.290Z,22.20
2024-02-29T10:06:09.373Z,22.14
2024-02-29T10:08:37.232Z,22.07
2024-02-29T10:11:05.349Z,22.02
2024-02-29T10:13:40.214Z,22.01
2024-02-29T10:16:09.474Z,22.01
2024-02-29T10:18:38.564Z,22.01
2024-02-29T10:21:14.592Z,22.00
2024-02-29T10:23:43.501Z,22.03
2024-02-29T10:26:11.228Z,22.01
2024-02-29T10:28:38.889Z,22.04
2024-02-29T10:31:08.679Z,22.04
2024-02-29T10:33:39.678Z,21.99
2024-02-29T10:36:12.785Z,21.94
2024-02-29T10:38:40.554Z,21.92
2024-02-29T10:41:09.811Z,21.92
2024-02-29T10:43:39.009Z,21.89
2024-02-29T10:46:08.233Z,21.90
2024-02-29T10:48:48.071Z,21.88
2024-02-29T10:51:27.460Z,21.89
2024-02-29T10:54:07.302Z,21.88
2024-02-29T10:56:37.241Z,21.87
2024-02-29T10:59:06.522Z,21.86
2024-02-29T11:01:35.755Z,21.92
2024-02-29T11:04:04.641Z,21.93
2024-02-29T11:06:39.110Z,21.89
2024-02-29T11:09:09.770Z,21.95
2024-02-29T11:11:38.406Z,21.95
2024-02-29T11:14:10.470Z,21.96
2024-02-29T11:16:40.439Z,21.96
2024-02-29T11:19:11.314Z,21.92
2024-02-29T11:21:40.434Z,21.97
2024-02-29T11:24:08.942Z,22.00
2024-02-29T11:26:37.593Z,21.96
2024-02-29T11:29:14.852Z,22.00
2024-02-29T11:31:44.312Z,21.97
2024-02-29T11:34:12.791Z,21.92
2024-02-29T11:36:42.119Z,21.88
2024-02-29T11:39:11.007Z,21.85
2024-02-29T11:41:39.374Z,21.87
2024-02-29T11:44:07.205Z,21.89
2024-02-29T11:46:34.838Z,21.88
2024-02-29T11:49:02.567Z,21.83
2024-02-29T11:51:30.447Z,21.80
2024-02-29T11:53:59.801Z,21.80
2024-02-29T11:56:27.520Z,21.78
2024-02-29T11:58:55.937Z,21.76
2024-02-29T12:01:24.803Z,21.82
2024-02-29T12:03:53.211Z,21.97
2024-02-29T12:06:21.391Z,22.00
2024-02-29T12:08:49.707Z,22.03
2024-02-29T12:11:19.121Z,22.04
2024-02-29T12:13:47.342Z,22.12
2024-02-29T12:16:16.886Z,22.10
2024-02-29T12:18:46.533Z,22.12
2024-02-29T12:21:14.527Z,22.11
2024-02-29T12:23:42.105Z,22.12
2024-02-29T12:26:10.552Z,22.09
2024-02-29T12:28:40.389Z,22.06
2024-02-29T12:31:09.758Z,21.95
2024-02-29T12:33:38.385Z,21.91
2024-02-29T12:36:06.692Z,21.91
2024-02-29T12:38:35.261Z,21.88
2024-02-29T12:41:03.758Z,21.88
2024-02-29T12:43:31.478Z,21.86
2024-02-29T12:46:00.738Z,21.84
2024-02-29T12:48:28.337Z,21.85
2024-02-29T12:50:56.112Z,21.85
2024-02-29T12:53:23.905Z,21.83
2024-02-29T12:55:51.978Z,21.79
2024-02-29T12:58:19.680Z,21.76
2024-02-29T13:00:47.289Z,21.76
2024-02-29T13:03:16.815Z,21.77
2024-02-29T13:05:45.498Z,21.76
2024-02-29T13:08:13.077Z,21.77
2024-02-29T13:10:41.121Z,21.71
2024-02-29T13:13:10.697Z,21.69
2024-02-29T13:15:39.033Z,21.71
2024-02-29T13:18:06.830Z,21.67
2024-02-29T13:20:35.686Z,21.69
2024-02-29T13:23:03.283Z,21.71
2024-02-29T13:25:30.979Z,21.70
2024-02-29T13:27:58.561Z,21.69
2024-02-29T13:30:26.485Z,21.63
2024-02-29T13:32:54.050Z,21.60
2024-02-29T13:35:21.812Z,21.59
2024-02-29T13:37:51.021Z,21.57
2024-02-29T13:40:19.458Z,21.57
2024-02-29T13:42:47.849Z,21.58
2024-02-29T13:45:15.907Z,21.57
2024-02-29T13:47:48.633Z,21.56
2024-02-29T13:50:16.778Z,21.54
2024-02-29T13:52:44.585Z,21.53
2024-02-29T13:55:13.872Z,21.50
2024-02-29T13:57:41.748Z,21.48
2024-02-29T14:00:10.441Z,21.46
2024-02-29T14:02:41.777Z,21.43
2024-02-29T14:05:09.492Z,21.42
2024-02-29T14:07:37.450Z,21.41
2024-02-29T14:10:07.860Z,21.42
2024-02-29T14:12:38.836Z,21.38
2024-02-29T14:15:07.620Z,21.44
2024-02-29T14:17:36.958Z,21.43
2024-02-29T14:20:05.618Z,21.41
2024-02-29T14:22:33.445Z,21.41
2024-02-29T14:25:01.073Z,21.42
2024-02-29T14:27:28.595Z,21.43
2024-02-29T14:29:58.119Z,21.44
2024-02-29T14:32:25.890Z,21.46
2024-02-29T14:34:53.303Z,21.50
2024-02-29T14:37:21.021Z,21.51
2024-02-29T14:39:48.531Z,21.56
2024-02-29T14:42:16.147Z,21.55
2024-02-29T15:40:19.289Z,21.30
2024-02-29T15:42:47.168Z,21.30
2024-02-29T15:45:16.014Z,21.31
2024-02-29T15:47:43.764Z,21.30
2024-02-29T15:50:11.365Z,21.30
2024-02-29T15:52:39.048Z,21.30
2024-02-29T15:55:07.774Z,21.30
2024-02-29T15:57:37.516Z,21.29
2024-02-29T16:00:06.700Z,21.32
2024-02-29T16:02:40.302Z,21.37
2024-02-29T16:05:08.447Z,21.38
2024-02-29T16:07:36.184Z,21.44
2024-02-29T16:10:04.620Z,21.47
2024-02-29T16:12:32.731Z,21.49
2024-02-29T16:15:01.894Z,21.50
2024-02-29T16:17:29.653Z,21.52
2024-02-29T16:19:57.423Z,21.52
2024-02-29T16:22:24.860Z,21.53
2024-02-29T16:24:52.563Z,21.55
2024-02-29T16:27:20.122Z,21.56
2024-02-29T16:29:47.708Z,21.55
2024-02-29T16:32:16.533Z,21.60
2024-02-29T16:34:44.182Z,21.59
2024-02-29T16:37:11.773Z,21.61
2024-02-29T16:39:39.612Z,21.96
2024-02-29T16:42:07.940Z,22.17
2024-02-29T16:44:35.593Z,22.19
2024-02-29T16:47:03.131Z,22.35
2024-02-29T16:49:32.329Z,22.73
2024-02-29T16:52:00.080Z,23.06
2024-02-29T16:54:27.841Z,23.17
2024-02-29T16:56:55.739Z,23.24
2024-02-29T16:59:23.386Z,23.29
2024-02-29T17:01:51.042Z,23.31
2024-02-29T17:04:18.748Z,23.37
2024-02-29T17:06:48.127Z,23.37
2024-02-29T17:09:16.206Z,23.38
2024-02-29T17:11:43.863Z,23.40
2024-02-29T17:14:11.287Z,23.54
2024-02-29T17:16:39.176Z,23.67
2024-02-29T17:19:07.230Z,23.63
2024-02-29T17:21:35.547Z,23.55
2024-02-29T17:24:06.122Z,23.55
2024-02-29T17:26:35.039Z,23.57
2024-02-29T17:29:02.649Z,23.62
2024-02-29T17:31:30.082Z,23.63
2024-02-29T17:33:57.703Z,23.70
2024-02-29T17:36:25.476Z,23.87
2024-02-29T17:38:53.092Z,23.88
2024-02-29T17:41:21.974Z,23.83
2024-02-29T17:43:49.556Z,23.78
2024-02-29T17:46:17.427Z,23.78
2024-02-29T17:48:45.386Z,23.89
2024-02-29T17:51:12.977Z,24.00
2024-02-29T17:53:40.413Z,24.02
2024-02-29T17:56:07.995Z,23.92
2024-02-29T17:58:37.700Z,23.91
2024-02-29T18:01:05.576Z,23.88
2024-02-29T18:03:33.283Z,23.82
2024-02-29T18:06:00.733Z,23.90
2024-02-29T18:08:29.157Z,24.00
2024-02-29T18:10:56.767Z,24.01
2024-02-29T18:13:24.425Z,23.97
2024-02-29T18:15:53.711Z,23.90
2024-02-29T18:18:21.449Z,23.83
2024-02-29T18:20:49.525Z,23.79
2024-02-29T18:23:17.241Z,23.81
2024-02-29T18:25:45.180Z,24.01
2024-02-29T18:28:12.959Z,24.01
2024-02-29T18:30:41.442Z,23.97
2024-02-29T18:33:10.573Z,23.93
2024-02-29T18:35:38.913Z,23.95
2024-02-29T18:38:06.664Z,24.04
2024-02-29T18:40:34.210Z,23.98
2024-02-29T18:43:02.019Z,23.94
2024-02-29T18:45:29.681Z,23.97
2024-02-29T18:47:57.719Z,24.10
2024-02-29T18:50:26.731Z,24.20
2024-02-29T18:52:54.581Z,24.18
2024-02-29T18:55:24.149Z,24.17
2024-02-29T18:57:52.277Z,24.13
2024-02-29T19:00:20.463Z,24.13
2024-02-29T19:02:48.173Z,24.18
2024-02-29T19:05:15.891Z,24.23
2024-02-29T19:07:45.103Z,24.22
2024-02-29T19:10:14.470Z,24.13
2024-02-29T19:12:42.488Z,24.09
2024-02-29T19:15:10.939Z,24.16
2024-02-29T19:17:38.872Z,24.21
2024-02-29T19:20:11.715Z,24.33
2024-02-29T19:22:39.790Z,24.32
2024-02-29T19:25:09.598Z,24.24
2024-02-29T19:27:37.404Z,24.17
2024-02-29T19:30:06.985Z,24.14
2024-02-29T19:32:34.685Z,24.24
2024-02-29T19:35:04.184Z,24.30
2024-02-29T19:37:31.983Z,24.36
2024-02-29T19:39:59.787Z,24.26
2024-02-29T19:42:28.817Z,24.22
2024-02-29T19:44:59.293Z,24.10
2024-02-29T19:47:27.171Z,24.19
2024-02-29T19:49:54.865Z,24.30
2024-02-29T19:52:22.489Z,24.32
2024-02-29T19:54:50.187Z,24.24
2024-02-29T19:57:18.055Z,24.19
2024-02-29T19:59:47.142Z,24.15
2024-02-29T20:02:15.106Z,24.20
2024-02-29T20:04:42.791Z,24.33
2024-02-29T20:07:11.088Z,24.33
2024-02-29T20:09:39.744Z,24.27
2024-02-29T20:12:07.854Z,24.23
2024-02-29T20:14:35.463Z,24.16
2024-02-29T20:17:04.849Z,24.21
2024-02-29T20:19:33.561Z,24.30
2024-02-29T20:22:04.256Z,24.36
2024-02-29T20:24:32.089Z,24.32
2024-02-29T20:26:59.770Z,24.31
2024-02-29T20:29:27.428Z,24.22
2024-02-29T20:31:55.092Z,24.31
2024-02-29T20:34:24.205Z,24.38
2024-02-29T20:36:52.166Z,24.44
2024-02-29T20:39:20.462Z,24.40
2024-02-29T20:41:48.146Z,24.33
2024-02-29T20:44:15.954Z,24.25
2024-02-29T20:46:44.081Z,24.35
2024-02-29T20:49:11.747Z,24.42
2024-02-29T20:51:40.885Z,24.46
2024-02-29T20:54:08.531Z,24.42
2024-02-29T20:56:35.960Z,24.35
2024-02-29T20:59:05.197Z,24.28
2024-02-29T21:01:32.916Z,24.37
2024-02-29T21:04:00.743Z,24.48
2024-02-29T21:06:28.629Z,24.47
2024-02-29T21:08:57.682Z,24.38
2024-02-29T21:11:25.395Z,24.31
2024-02-29T21:13:54.464Z,24.26
2024-02-29T21:16:22.126Z,24.14
2024-02-29T21:18:49.822Z,24.04
2024-02-29T21:21:19.842Z,23.96
2024-02-29T21:23:47.980Z,23.81
2024-02-29T21:26:17.152Z,23.68
2024-02-29T21:28:47.552Z,23.56
2024-02-29T21:31:15.870Z,23.44
2024-02-29T21:33:43.568Z,23.31
2024-02-29T21:36:11.545Z,23.20
2024-02-29T21:38:39.179Z,23.13
2024-02-29T21:41:06.798Z,23.03
2024-02-29T21:43:35.923Z,22.97
2024-02-29T21:46:03.705Z,22.89
2024-02-29T21:48:31.394Z,22.83
2024-02-29T21:50:58.854Z,22.78
2024-02-29T21:53:26.664Z,22.72
2024-02-29T21:55:54.336Z,22.67
2024-02-29T21:58:22.409Z,22.63
2024-02-29T22:00:52.540Z,22.56
2024-02-29T22:03:22.958Z,22.52
2024-02-29T22:05:51.271Z,22.48
2024-02-29T22:08:18.698Z,22.43
2024-02-29T22:10:47.845Z,22.38
2024-02-29T22:13:15.667Z,22.34
2024-02-29T22:15:43.499Z,22.29
2024-02-29T22:18:12.347Z,22.26
2024-02-29T22:20:39.968Z,22.23
2024-02-29T22:23:08.157Z,22.21
2024-02-29T22:25:35.773Z,22.17
2024-02-29T22:28:03.332Z,22.15
2024-02-29T22:30:31.084Z,22.12
2024-02-29T22:32:58.681Z,22.09
2024-02-29T22:35:27.546Z,22.08
2024-02-29T22:37:55.127Z,22.05
2024-02-29T22:40:22.748Z,22.03
2024-02-29T22:42:50.474Z,22.00
2024-02-29T22:45:18.169Z,21.97
2024-02-29T22:47:46.187Z,21.96
2024-02-29T22:50:13.566Z,21.94
2024-02-29T22:52:43.001Z,21.93
2024-02-29T22:55:10.825Z,21.90
2024-02-29T22:57:38.409Z,21.89
2024-02-29T23:00:10.867Z,21.87
2024-02-29T23:02:39.459Z,21.87
2024-02-29T23:05:07.506Z,21.85
2024-02-29T23:07:36.541Z,21.82
2024-02-29T23:10:06.561Z,21.82
2024-02-29T23:12:34.346Z,21.80
2024-02-29T23:15:01.783Z,21.79
2024-02-29T23:17:29.520Z,21.77
2024-02-29T23:19:57.014Z,21.76
2024-02-29T23:22:25.301Z,21.75
2024-02-29T23:24:53.153Z,21.73
2024-02-29T23:27:22.392Z,21.72
2024-02-29T23:29:50.546Z,21.71
2024-02-29T23:32:18.325Z,21.70
2024-02-29T23:34:45.991Z,21.69
2024-02-29T23:37:13.666Z,21.68
2024-02-29T23:39:41.432Z,21.64
2024-02-29T23:42:08.868Z,21.65
2024-02-29T23:44:37.963Z,21.64
2024-02-29T23:47:06.276Z,21.65
2024-02-29T23:49:34.073Z,21.61
2024-02-29T23:52:01.842Z,21.61
2024-02-29T23:54:29.840Z,21.60
2024-02-29T23:56:58.442Z,21.59
2024-02-29T23:59:26.067Z,21.58
